createdAt,value
2024-02-14T00:00:01.164Z,76.08
2024-02-14T00:02:34.805Z,75.96
2024-02-14T00:05:08.130Z,75.98
2024-02-14T00:07:42.128Z,75.85
2024-02-14T00:10:14.674Z,75.77
2024-02-14T00:12:50.136Z,75.89
2024-02-14T00:15:34.114Z,75.94
2024-02-14T00:18:10.112Z,75.88
2024-02-14T00:20:44.208Z,75.94
2024-02-14T00:23:16.575Z,75.93
2024-02-14T00:25:50.283Z,75.88
2024-02-14T00:28:25.215Z,76.00
2024-02-14T00:30:57.995Z,75.94
2024-02-14T00:33:35.149Z,76.10
2024-02-14T00:36:12.036Z,75.95
2024-02-14T00:38:45.241Z,75.82
2024-02-14T00:41:18.103Z,75.97
2024-02-14T00:43:50.276Z,75.97
2024-02-14T00:46:22.359Z,76.08
2024-02-14T00:48:55.823Z,76.13
2024-02-14T00:51:30.948Z,76.23
2024-02-14T00:54:03.100Z,76.19
2024-02-14T00:56:35.649Z,76.12
2024-02-14T00:59:09.052Z,76.16
2024-02-14T01:01:42.442Z,75.93
2024-02-14T01:04:15.237Z,76.04
2024-02-14T01:06:51.171Z,76.03
2024-02-14T01:09:24.192Z,75.97
2024-02-14T01:11:57.279Z,76.05
2024-02-14T01:14:29.498Z,75.99
2024-02-14T01:17:02.111Z,75.76
2024-02-14T01:19:35.076Z,75.63
2024-02-14T01:22:12.330Z,75.33
2024-02-14T01:24:44.452Z,75.13
2024-02-14T01:27:18.306Z,75.14
2024-02-14T01:29:50.580Z,75.40
2024-02-14T01:32:22.934Z,75.59
2024-02-14T01:34:55.388Z,75.19
2024-02-14T01:37:30.994Z,75.43
2024-02-14T01:40:04.563Z,75.72
2024-02-14T01:42:37.383Z,75.93
2024-02-14T01:45:19.880Z,75.83
2024-02-14T01:47:54.216Z,75.82
2024-02-14T01:50:31.234Z,75.99
2024-02-14T01:53:12.890Z,75.84
2024-02-14T01:55:46.502Z,75.61
2024-02-14T01:58:19.603Z,75.28
2024-02-14T02:00:52.419Z,75.46
2024-02-14T02:03:30.933Z,75.88
2024-02-14T02:06:03.637Z,75.97
2024-02-14T02:08:37.080Z,75.98
2024-02-14T02:11:10.153Z,75.92
2024-02-14T02:13:43.004Z,75.94
2024-02-14T02:16:16.732Z,75.75
2024-02-14T02:18:51.712Z,75.70
2024-02-14T02:21:25.463Z,75.77
2024-02-14T02:23:59.935Z,75.72
2024-02-14T02:26:32.129Z,75.59
2024-02-14T02:29:04.682Z,75.59
2024-02-14T02:31:36.801Z,75.65
2024-02-14T02:34:12.983Z,75.17
2024-02-14T02:36:46.995Z,74.98
2024-02-14T02:39:21.974Z,74.94
2024-02-14T02:41:56.584Z,75.13
2024-02-14T02:44:31.268Z,75.29
2024-02-14T02:47:03.329Z,75.51
2024-02-14T02:49:38.743Z,75.67
2024-02-14T02:52:11.710Z,75.51
2024-02-14T02:54:47.995Z,75.43
2024-02-14T02:57:23.162Z,75.56
2024-02-14T02:59:57.793Z,75.81
2024-02-14T03:02:30.847Z,75.87
2024-02-14T03:05:05.631Z,76.09
2024-02-14T03:07:38.430Z,75.94
2024-02-14T03:10:15.200Z,75.93
2024-02-14T03:12:53.308Z,75.33
2024-02-14T03:15:27.220Z,75.12
2024-02-14T03:18:00.678Z,75.16
2024-02-14T03:20:34.768Z,75.40
2024-02-14T03:23:11.358Z,75.53
2024-02-14T03:25:43.499Z,75.63
2024-02-14T03:28:18.287Z,75.75
2024-02-14T03:30:50.616Z,75.80
2024-02-14T03:33:23.202Z,75.78
2024-02-14T03:35:56.123Z,75.90
2024-02-14T03:38:33.570Z,75.96
2024-02-14T03:41:05.961Z,75.87
2024-02-14T03:43:38.227Z,75.64
2024-02-14T03:46:10.392Z,75.87
2024-02-14T03:48:43.247Z,75.77
2024-02-14T03:51:16.851Z,75.70
2024-02-14T03:53:49.268Z,75.90
2024-02-14T03:56:21.907Z,75.91
2024-02-14T03:58:53.871Z,75.62
2024-02-14T04:01:26.566Z,75.71
2024-02-14T04:03:58.833Z,75.67
2024-02-14T04:06:36.295Z,75.55
2024-02-14T04:09:11.491Z,75.20
2024-02-14T04:11:44.651Z,75.38
2024-02-14T04:14:17.048Z,75.63
2024-02-14T04:16:50.007Z,75.52
2024-02-14T04:19:23.106Z,75.33
2024-02-14T04:21:56.738Z,75.50
2024-02-14T04:24:28.936Z,75.67
2024-02-14T04:27:04.061Z,75.83
2024-02-14T04:29:36.495Z,75.94
2024-02-14T04:32:10.460Z,75.98
2024-02-14T04:34:45.177Z,75.88
2024-02-14T04:37:20.096Z,75.87
2024-02-14T04:39:52.402Z,75.87
2024-02-14T04:42:25.262Z,75.92
2024-02-14T04:44:58.833Z,75.97
2024-02-14T04:47:54.882Z,75.92
2024-02-14T04:50:35.603Z,76.02
2024-02-14T04:53:27.585Z,76.15
2024-02-14T04:56:03.826Z,75.83
2024-02-14T04:58:40.481Z,75.52
2024-02-14T05:01:16.969Z,75.42
2024-02-14T05:04:05.105Z,75.71
2024-02-14T05:06:42.116Z,75.71
2024-02-14T05:09:16.775Z,75.67
2024-02-14T05:11:51.633Z,75.60
2024-02-14T05:14:24.899Z,75.56
2024-02-14T05:17:09.576Z,75.51
2024-02-14T05:19:43.835Z,75.69
2024-02-14T05:22:16.144Z,75.87
2024-02-14T05:24:49.001Z,75.94
2024-02-14T05:27:21.545Z,76.01
2024-02-14T05:29:56.992Z,75.80
2024-02-14T05:32:32.964Z,75.69
2024-02-14T05:35:11.430Z,75.73
2024-02-14T05:37:51.621Z,75.71
2024-02-14T05:40:27.761Z,75.98
2024-02-14T05:43:00.041Z,75.89
2024-02-14T05:45:36.368Z,75.67
2024-02-14T05:48:21.485Z,75.66
2024-02-14T05:50:56.570Z,75.94
2024-02-14T05:53:29.490Z,75.95
2024-02-14T05:56:02.786Z,76.04
2024-02-14T05:58:34.861Z,75.83
2024-02-14T06:01:09.769Z,75.67
2024-02-14T06:03:43.587Z,75.42
2024-02-14T06:06:16.110Z,75.37
2024-02-14T06:08:56.278Z,75.69
2024-02-14T06:11:28.918Z,75.88
2024-02-14T06:14:04.610Z,75.75
2024-02-14T06:16:51.716Z,75.67
2024-02-14T06:19:24.057Z,75.96
2024-02-14T06:21:56.486Z,76.06
2024-02-14T06:24:28.515Z,76.20
2024-02-14T06:27:01.311Z,76.29
2024-02-14T06:29:37.585Z,76.22
2024-02-14T06:32:10.956Z,76.30
2024-02-14T06:34:43.321Z,76.32
2024-02-14T06:37:16.088Z,76.51
2024-02-14T06:39:49.640Z,76.57
2024-02-14T06:42:21.990Z,76.88
2024-02-14T06:45:01.430Z,76.82
2024-02-14T06:47:34.010Z,76.87
2024-02-14T06:52:39.174Z,76.82
2024-02-14T06:55:15.750Z,76.56
2024-02-14T06:57:48.475Z,76.60
2024-02-14T07:00:21.796Z,76.57
2024-02-14T07:02:55.393Z,76.41
2024-02-14T07:05:27.840Z,76.30
2024-02-14T07:08:02.753Z,76.69
2024-02-14T07:10:37.521Z,76.83
2024-02-14T07:13:10.679Z,76.88
2024-02-14T07:15:42.839Z,76.84
2024-02-14T07:18:16.230Z,76.87
2024-02-14T07:20:50.323Z,76.80
2024-02-14T07:23:23.275Z,76.64
2024-02-14T07:25:55.419Z,76.69
2024-02-14T07:28:30.126Z,76.71
2024-02-14T07:31:03.522Z,76.74
2024-02-14T07:33:36.932Z,76.79
2024-02-14T07:36:10.500Z,76.85
2024-02-14T07:38:44.937Z,76.93
2024-02-14T07:41:19.685Z,76.89
2024-02-14T07:43:55.124Z,76.95
2024-02-14T07:46:41.346Z,76.92
2024-02-14T07:49:14.234Z,76.94
2024-02-14T07:51:46.583Z,76.96
2024-02-14T07:54:20.554Z,76.98
2024-02-14T07:56:52.739Z,76.98
2024-02-14T07:59:26.339Z,77.03
2024-02-14T08:02:01.792Z,77.14
2024-02-14T08:04:35.659Z,77.03
2024-02-14T08:07:08.121Z,77.22
2024-02-14T08:09:41.714Z,77.25
2024-02-14T08:12:14.268Z,77.29
2024-02-14T08:14:46.699Z,77.24
2024-02-14T08:17:19.156Z,77.23
2024-02-14T08:19:51.568Z,77.30
2024-02-14T08:22:23.713Z,77.34
2024-02-14T08:24:57.295Z,77.34
2024-02-14T08:27:29.738Z,77.42
2024-02-14T08:30:04.027Z,77.38
2024-02-14T08:32:37.328Z,77.42
2024-02-14T08:35:15.461Z,77.30
2024-02-14T08:37:47.497Z,77.31
2024-02-14T08:40:20.062Z,77.32
2024-02-14T08:42:52.273Z,77.42
2024-02-14T08:45:24.726Z,77.83
2024-02-14T08:47:56.893Z,77.80
2024-02-14T08:50:29.225Z,77.56
2024-02-14T08:53:04.133Z,77.49
2024-02-14T08:55:42.586Z,77.60
2024-02-14T08:58:14.734Z,77.69
2024-02-14T09:00:48.738Z,77.64
2024-02-14T09:03:33.694Z,77.56
2024-02-14T09:06:13.062Z,77.32
2024-02-14T09:08:47.833Z,77.36
2024-02-14T09:11:21.725Z,77.36
2024-02-14T09:14:00.707Z,77.26
2024-02-14T09:16:40.974Z,77.29
2024-02-14T09:19:14.145Z,77.21
2024-02-14T09:21:46.617Z,77.47
2024-02-14T09:24:18.942Z,77.45
2024-02-14T09:26:52.116Z,77.35
2024-02-14T09:29:24.658Z,77.41
2024-02-14T09:31:57.162Z,77.46
2024-02-14T09:34:29.337Z,77.48
2024-02-14T09:37:02.451Z,77.50
2024-02-14T09:39:38.172Z,77.33
2024-02-14T09:42:15.817Z,77.33
2024-02-14T09:44:50.535Z,77.22
2024-02-14T09:47:23.266Z,77.30
2024-02-14T09:49:56.452Z,77.20
2024-02-14T09:52:29.302Z,77.27
2024-02-14T09:55:01.994Z,77.22
2024-02-14T09:57:37.012Z,77.04
2024-02-14T10:00:11.830Z,76.63
2024-02-14T10:02:44.740Z,76.70
2024-02-14T10:05:16.914Z,76.82
2024-02-14T10:07:49.339Z,77.40
2024-02-14T10:10:23.116Z,77.72
2024-02-14T10:12:56.704Z,77.63
2024-02-14T10:15:28.719Z,77.44
2024-02-14T10:18:02.409Z,77.08
2024-02-14T10:20:36.519Z,77.03
2024-02-14T10:23:13.381Z,76.86
2024-02-14T10:25:45.900Z,76.04
2024-02-14T10:28:19.237Z,75.95
2024-02-14T10:30:52.005Z,75.84
2024-02-14T10:33:27.826Z,76.03
2024-02-14T10:36:04.277Z,75.78
2024-02-14T10:38:40.023Z,75.46
2024-02-14T10:41:13.881Z,74.97
2024-02-14T10:43:47.009Z,74.87
2024-02-14T10:46:26.532Z,75.03
2024-02-14T10:49:05.857Z,75.19
2024-02-14T10:51:42.447Z,75.07
2024-02-14T10:54:18.323Z,74.94
2024-02-14T10:56:56.618Z,75.10
2024-02-14T10:59:31.712Z,74.62
2024-02-14T11:02:06.664Z,74.50
2024-02-14T11:04:41.256Z,74.68
2024-02-14T11:07:16.621Z,74.58
2024-02-14T11:09:49.064Z,74.74
2024-02-14T11:12:25.257Z,74.72
2024-02-14T11:15:03.976Z,74.74
2024-02-14T11:17:36.664Z,74.64
2024-02-14T11:20:20.308Z,74.56
2024-02-14T11:22:58.500Z,74.52
2024-02-14T11:25:35.587Z,74.13
2024-02-14T11:28:21.526Z,74.32
2024-02-14T11:30:56.572Z,74.31
2024-02-14T11:33:28.730Z,73.87
2024-02-14T11:36:05.986Z,73.75
2024-02-14T11:38:38.385Z,73.97
2024-02-14T11:41:14.633Z,73.86
2024-02-14T11:43:55.825Z,73.94
2024-02-14T11:46:32.775Z,73.77
2024-02-14T11:49:28.679Z,73.70
2024-02-14T11:52:01.237Z,73.22
2024-02-14T11:54:35.097Z,73.23
2024-02-14T11:57:09.771Z,73.37
2024-02-14T11:59:50.977Z,73.07
2024-02-14T12:02:21.993Z,73.00
2024-02-14T12:04:56.539Z,73.03
2024-02-14T12:07:29.665Z,72.89
2024-02-14T12:10:01.931Z,73.03
2024-02-14T12:12:35.318Z,72.90
2024-02-14T12:15:12.299Z,72.83
2024-02-14T12:17:45.011Z,72.97
2024-02-14T12:20:18.281Z,72.72
2024-02-14T12:22:55.378Z,72.63
2024-02-14T12:25:27.814Z,72.73
2024-02-14T12:28:02.045Z,72.83
2024-02-14T12:30:51.227Z,72.67
2024-02-14T12:33:26.337Z,72.70
2024-02-14T12:35:59.971Z,72.72
2024-02-14T12:38:36.514Z,72.35
2024-02-14T12:41:11.498Z,72.32
2024-02-14T12:43:44.902Z,72.31
2024-02-14T12:46:18.567Z,72.39
2024-02-14T12:48:58.361Z,72.38
2024-02-14T12:51:32.322Z,72.49
2024-02-14T12:54:13.842Z,72.37
2024-02-14T12:56:52.493Z,72.24
2024-02-14T12:59:25.834Z,72.24
2024-02-14T13:01:58.179Z,72.26
2024-02-14T13:04:37.922Z,72.16
2024-02-14T13:07:13.556Z,72.04
2024-02-14T13:09:47.215Z,72.11
2024-02-14T13:12:19.958Z,72.09
2024-02-14T13:14:53.035Z,72.03
2024-02-14T13:17:31.001Z,71.96
2024-02-14T13:20:09.832Z,71.82
2024-02-14T13:22:43.262Z,71.88
2024-02-14T13:25:16.989Z,71.86
2024-02-14T13:27:50.421Z,71.91
2024-02-14T13:30:22.995Z,71.79
2024-02-14T13:32:55.293Z,71.73
2024-02-14T13:35:28.152Z,71.64
2024-02-14T13:38:00.377Z,71.66
2024-02-14T13:40:32.998Z,71.73
2024-02-14T13:43:06.108Z,71.77
2024-02-14T13:45:45.532Z,71.69
2024-02-14T13:48:18.185Z,71.57
2024-02-14T13:50:52.740Z,71.53
2024-02-14T13:53:24.920Z,71.60
2024-02-14T13:55:57.523Z,71.46
2024-02-14T13:58:29.750Z,71.51
2024-02-14T14:01:02.229Z,71.48
2024-02-14T14:03:36.335Z,71.34
2024-02-14T14:06:10.033Z,71.40
2024-02-14T14:08:45.098Z,71.36
2024-02-14T14:11:20.239Z,71.27
2024-02-14T14:13:52.721Z,71.36
2024-02-14T14:16:27.230Z,71.22
2024-02-14T14:19:05.128Z,71.24
2024-02-14T14:21:56.877Z,71.28
2024-02-14T14:24:37.149Z,71.23
2024-02-14T14:27:16.129Z,71.30
2024-02-14T14:30:02.406Z,71.20
2024-02-14T14:32:36.285Z,71.17
2024-02-14T14:35:12.362Z,71.17
2024-02-14T14:38:13.853Z,71.07
2024-02-14T14:40:46.946Z,71.08
2024-02-14T14:43:40.199Z,71.04
2024-02-14T14:46:32.180Z,71.01
2024-02-14T14:49:22.301Z,70.84
2024-02-14T14:51:58.708Z,70.83
2024-02-14T14:54:31.133Z,70.91
2024-02-14T14:57:05.735Z,70.85
2024-02-14T14:59:40.560Z,70.78
2024-02-14T15:02:12.858Z,70.69
2024-02-14T15:04:47.858Z,70.88
2024-02-14T15:07:24.653Z,70.79
2024-02-14T15:09:57.012Z,70.74
2024-02-14T15:12:29.059Z,70.72
2024-02-14T15:15:01.764Z,70.67
2024-02-14T15:17:35.396Z,70.66
2024-02-14T15:20:09.666Z,70.63
2024-02-14T15:22:41.761Z,70.63
2024-02-14T15:25:14.321Z,70.66
2024-02-14T15:27:55.883Z,70.68
2024-02-14T15:30:46.648Z,70.69
2024-02-14T15:33:29.356Z,70.59
2024-02-14T15:36:02.314Z,70.65
2024-02-14T15:38:35.606Z,70.56
2024-02-14T15:41:08.726Z,70.60
2024-02-14T15:43:45.282Z,70.62
2024-02-14T15:46:25.242Z,70.54
2024-02-14T15:48:57.341Z,70.67
2024-02-14T15:51:29.603Z,70.57
2024-02-14T15:54:04.265Z,70.64
2024-02-14T15:56:41.195Z,70.55
2024-02-14T15:59:16.631Z,70.54
2024-02-14T16:01:57.186Z,70.60
2024-02-14T16:04:30.146Z,70.59
2024-02-14T16:07:05.506Z,70.45
2024-02-14T16:09:39.240Z,70.49
2024-02-14T16:12:12.935Z,70.53
2024-02-14T16:14:46.422Z,70.48
2024-02-14T16:17:23.815Z,70.51
2024-02-14T16:19:58.550Z,70.49
2024-02-14T16:22:31.419Z,70.47
2024-02-14T16:25:08.975Z,70.44
2024-02-14T16:27:42.903Z,70.38
2024-02-14T16:30:16.908Z,70.24
2024-02-14T16:32:49.694Z,70.24
2024-02-14T16:35:39.513Z,70.27
2024-02-14T16:38:36.561Z,70.16
2024-02-14T16:41:29.159Z,70.19
2024-02-14T16:44:08.725Z,70.31
2024-02-14T16:47:12.446Z,70.21
2024-02-14T16:49:51.396Z,70.18
2024-02-14T16:52:37.259Z,70.13
2024-02-14T16:55:13.437Z,70.16
2024-02-14T16:57:48.006Z,70.20
2024-02-14T17:00:24.525Z,70.29
2024-02-14T17:03:05.837Z,70.28
2024-02-14T17:05:50.188Z,70.30
2024-02-14T17:08:25.039Z,70.30
2024-02-14T17:10:59.946Z,70.25
2024-02-14T17:14:24.142Z,70.27
2024-02-14T17:17:23.045Z,70.32
2024-02-14T17:20:30.692Z,70.32
2024-02-14T17:23:48.530Z,70.30
2024-02-14T17:26:23.301Z,70.46
2024-02-14T17:28:55.725Z,70.43
2024-02-14T17:31:34.148Z,70.46
2024-02-14T17:34:11.788Z,70.46
2024-02-14T17:36:46.291Z,70.55
2024-02-14T17:39:18.744Z,70.47
2024-02-14T17:41:52.048Z,70.56
2024-02-14T17:44:26.405Z,70.51
2024-02-14T17:46:58.910Z,70.42
2024-02-14T17:49:32.477Z,70.55
2024-02-14T17:52:06.015Z,70.61
2024-02-14T17:54:40.161Z,70.66
2024-02-14T17:57:20.357Z,70.58
2024-02-14T17:59:53.339Z,70.60
2024-02-14T18:02:26.432Z,70.52
2024-02-14T18:05:00.606Z,70.62
2024-02-14T18:07:34.661Z,70.63
2024-02-14T18:10:07.684Z,70.62
2024-02-14T18:12:40.195Z,70.60
2024-02-14T18:15:17.189Z,70.55
2024-02-14T18:17:50.139Z,70.58
2024-02-14T18:20:22.293Z,70.59
2024-02-14T18:22:54.382Z,70.67
2024-02-14T18:25:26.729Z,70.59
2024-02-14T18:28:01.416Z,70.65
2024-02-14T18:30:39.035Z,70.59
2024-02-14T18:33:15.602Z,70.61
2024-02-14T18:35:48.209Z,70.69
2024-02-14T18:38:23.467Z,70.69
2024-02-14T18:40:55.944Z,70.66
2024-02-14T18:43:28.168Z,70.55
2024-02-14T18:46:00.652Z,70.67
2024-02-14T18:48:33.414Z,70.61
2024-02-14T18:51:06.594Z,70.62
2024-02-14T18:53:42.806Z,70.63
2024-02-14T18:56:18.418Z,70.65
2024-02-14T18:58:51.438Z,70.61
2024-02-14T19:01:27.174Z,70.68
2024-02-14T19:04:01.883Z,70.63
2024-02-14T19:06:37.234Z,70.73
2024-02-14T19:09:13.222Z,70.67
2024-02-14T19:11:48.543Z,70.65
2024-02-14T19:14:23.956Z,70.62
2024-02-14T19:16:56.307Z,70.56
2024-02-14T19:19:30.584Z,70.65
2024-02-14T19:22:03.747Z,70.63
2024-02-14T19:24:38.968Z,70.63
2024-02-14T19:27:11.446Z,70.60
2024-02-14T19:29:43.946Z,70.64
2024-02-14T19:32:19.327Z,70.57
2024-02-14T19:34:51.531Z,70.49
2024-02-14T19:37:24.402Z,70.49
2024-02-14T19:39:57.168Z,70.56
2024-02-14T19:42:30.184Z,70.53
2024-02-14T19:45:02.597Z,70.59
2024-02-14T19:47:36.430Z,70.43
2024-02-14T19:50:12.187Z,70.50
2024-02-14T19:52:49.398Z,70.40
2024-02-14T19:55:24.397Z,70.43
2024-02-14T19:57:56.595Z,70.49
2024-02-14T20:00:29.495Z,70.48
2024-02-14T20:03:03.363Z,70.44
2024-02-14T20:05:38.783Z,70.47
2024-02-14T20:08:15.399Z,70.31
2024-02-14T20:10:48.124Z,70.38
2024-02-14T20:13:21.358Z,70.31
2024-02-14T20:15:54.328Z,70.36
2024-02-14T20:18:36.513Z,70.41
2024-02-14T20:21:14.333Z,70.36
2024-02-14T20:23:47.273Z,70.44
2024-02-14T20:26:19.750Z,70.33
2024-02-14T20:28:53.288Z,70.38
2024-02-14T20:31:32.966Z,70.37
2024-02-14T20:34:06.726Z,70.27
2024-02-14T20:36:42.762Z,70.31
2024-02-14T20:39:17.484Z,70.37
2024-02-14T20:41:50.710Z,70.35
2024-02-14T20:44:25.473Z,70.28
2024-02-14T20:46:57.929Z,70.39
2024-02-14T20:49:31.217Z,70.22
2024-02-14T20:52:04.350Z,70.31
2024-02-14T20:54:40.202Z,70.38
2024-02-14T20:57:16.192Z,70.39
2024-02-14T20:59:49.509Z,70.41
2024-02-14T21:02:22.140Z,70.39
2024-02-14T21:04:54.617Z,70.45
2024-02-14T21:07:28.246Z,70.41
2024-02-14T21:10:00.626Z,70.39
2024-02-14T21:12:33.550Z,70.43
2024-02-14T21:15:16.078Z,70.33
2024-02-14T21:17:49.720Z,70.44
2024-02-14T21:20:22.695Z,70.38
2024-02-14T21:22:57.885Z,70.44
2024-02-14T21:25:30.756Z,70.37
2024-02-14T21:28:03.748Z,70.43
2024-02-14T21:30:41.483Z,70.43
2024-02-14T21:33:18.216Z,70.38
2024-02-14T21:35:51.392Z,70.40
2024-02-14T21:38:24.676Z,70.39
2024-02-14T21:40:57.619Z,70.39
2024-02-14T21:43:32.723Z,70.40
2024-02-14T21:46:16.394Z,70.41
2024-02-14T21:48:49.241Z,70.38
2024-02-14T21:51:22.446Z,70.35
2024-02-14T21:53:55.797Z,70.37
2024-02-14T21:56:28.397Z,70.36
2024-02-14T21:59:04.137Z,70.37
2024-02-14T22:01:44.557Z,70.41
2024-02-14T22:04:18.138Z,70.39
2024-02-14T22:06:57.126Z,70.48
2024-02-14T22:09:30.814Z,70.45
2024-02-14T22:12:03.671Z,70.48
2024-02-14T22:14:38.275Z,70.43
2024-02-14T22:17:13.290Z,70.47
2024-02-14T22:19:49.642Z,70.50
2024-02-14T22:22:22.582Z,70.42
2024-02-14T22:24:55.145Z,70.43
2024-02-14T22:27:28.919Z,70.52
2024-02-14T22:30:01.460Z,70.43
2024-02-14T22:32:35.707Z,70.45
2024-02-14T22:35:10.472Z,70.40
2024-02-14T22:37:45.218Z,70.49
2024-02-14T22:40:19.846Z,70.47
2024-02-14T22:42:53.414Z,70.49
2024-02-14T22:45:28.066Z,70.42
2024-02-14T22:48:01.523Z,70.41
2024-02-14T22:50:34.154Z,70.48
2024-02-14T22:53:12.214Z,70.48
2024-02-14T22:55:44.914Z,70.51
2024-02-14T22:58:17.318Z,70.50
2024-02-14T23:00:50.890Z,70.47
2024-02-14T23:03:23.768Z,70.51
2024-02-14T23:05:56.675Z,70.52
2024-02-14T23:08:29.206Z,70.53
2024-02-14T23:11:01.658Z,70.56
2024-02-14T23:13:34.707Z,70.58
2024-02-14T23:16:10.398Z,70.54
2024-02-14T23:18:43.029Z,70.47
2024-02-14T23:21:16.467Z,70.48
2024-02-14T23:23:52.153Z,70.56
2024-02-14T23:26:24.870Z,70.47
2024-02-14T23:28:57.139Z,70.52
2024-02-14T23:31:29.538Z,70.43
2024-02-14T23:34:02.437Z,70.52
2024-02-14T23:36:38.999Z,70.48
2024-02-14T23:39:12.137Z,70.56
2024-02-14T23:41:44.588Z,70.51
2024-02-14T23:44:19.227Z,70.56
2024-02-14T23:46:52.919Z,70.45
2024-02-14T23:49:26.173Z,70.43
2024-02-14T23:51:58.614Z,70.59
2024-02-14T23:54:42.385Z,70.54
2024-02-14T23:57:14.717Z,70.52
2024-02-14T23:59:49.961Z,70.56
